Time;durP1;ratioP1;P1;durP2;ratioP2;P2;SDS_P1;SDS_P2;PMS_P1;PMS_P2;Temp;Humidity;BMP_temperature;BMP_pressure;BME280_temperature;BME280_humidity;BME280_pressure;Samples;Min_cycle;Max_cycle;Signal;HPM_P1;HPM_P2
2022/10/11 00:00:15;;;;;;;16.05;12.10;;;;;;;;;;4971937;28;20483;-67
2022/10/11 00:02:40;;;;;;;11.23;9.75;;;;;;;;;;4971906;28;20037;-67
2022/10/11 00:05:05;;;;;;;15.55;10.38;;;;;;;;;;4969906;28;20041;-67
2022/10/11 00:07:31;;;;;;;12.82;10.02;;;;;;;;;;4969330;28;20320;-67
2022/10/11 00:09:56;;;;;;;12.23;10.57;;;;;;;;;;4970229;28;20031;-67
2022/10/11 00:12:21;;;;;;;11.75;10.48;;;;;;;;;;4971516;28;20827;-67
2022/10/11 00:14:46;;;;;;;13.60;10.23;;;;;;;;;;4970783;28;20114;-67
2022/10/11 00:17:12;;;;;;;13.40;10.70;;;;;;;;;;4968917;28;20027;-67
2022/10/11 00:19:37;;;;;;;13.85;10.95;;;;;;;;;;4970483;28;20035;-67
2022/10/11 00:22:02;;;;;;;11.50;9.80;;;;;;;;;;4971209;28;20066;-67
2022/10/11 00:24:27;;;;;;;13.27;9.70;;;;;;;;;;4970614;28;20485;-67
2022/10/11 00:26:52;;;;;;;13.65;9.98;;;;;;;;;;4969850;28;20563;-67
2022/10/11 00:29:18;;;;;;;11.07;9.35;;;;;;;;;;4975046;28;20471;-67
2022/10/11 00:31:43;;;;;;;12.48;10.20;;;;;;;;;;4975248;28;20030;-67
2022/10/11 00:34:10;;;;;;;12.93;10.40;;;;;;;;;;4945535;28;21027;-67
2022/10/11 00:36:36;;;;;;;14.07;11.40;;;;;;;;;;4973953;28;20058;-67
2022/10/11 00:39:01;;;;;;;13.07;9.43;;;;;;;;;;4974123;28;20174;-68
2022/10/11 00:41:27;;;;;;;12.75;9.80;;;;;;;;;;4970546;28;20031;-67
2022/10/11 00:44:08;;;;;;;11.90;10.35;;;;;;;;;;4970972;28;20035;-67
2022/10/11 00:46:34;;;;;;;11.10;9.55;;;;;;;;;;4972782;28;20097;-67
2022/10/11 00:49:01;;;;;;;13.93;11.20;;;;;;;;;;4973365;28;20030;-68
2022/10/11 00:51:32;;;;;;;13.52;9.35;;;;;;;;;;4974031;28;20427;-67
2022/10/11 00:53:58;;;;;;;12.50;9.88;;;;;;;;;;4973702;28;20037;-67
2022/10/11 00:56:25;;;;;;;12.35;9.73;;;;;;;;;;4974347;28;20019;-67
2022/10/11 00:58:51;;;;;;;14.82;10.73;;;;;;;;;;4974291;28;20027;-68
2022/10/11 01:01:17;;;;;;;12.27;9.55;;;;;;;;;;4959657;28;20038;-67
2022/10/11 01:03:42;;;;;;;11.15;9.77;;;;;;;;;;4973439;28;20045;-68
2022/10/11 01:06:08;;;;;;;10.77;9.65;;;;;;;;;;4974702;28;20023;-67
2022/10/11 01:08:34;;;;;;;12.38;10.02;;;;;;;;;;4972219;28;20607;-67
2022/10/11 01:10:59;;;;;;;13.60;10.02;;;;;;;;;;4974625;28;20034;-67
2022/10/11 01:13:24;;;;;;;13.57;10.45;;;;;;;;;;4973030;28;20400;-67
2022/10/11 01:15:57;;;;;;;10.50;9.13;;;;;;;;;;4974832;28;20029;-67
2022/10/11 01:18:32;;;;;;;12.80;10.25;;;;;;;;;;4973834;28;20022;-67
2022/10/11 01:21:03;;;;;;;12.43;10.17;;;;;;;;;;4972610;28;20058;-67
2022/10/11 01:23:37;;;;;;;12.25;10.05;;;;;;;;;;4974497;28;20033;-67
2022/10/11 01:26:14;;;;;;;12.00;10.25;;;;;;;;;;4973853;28;20434;-67
2022/10/11 01:28:58;;;;;;;16.58;9.52;;;;;;;;;;4974070;28;20027;-68
2022/10/11 01:31:26;;;;;;;11.43;10.25;;;;;;;;;;4974332;28;20382;-68
2022/10/11 01:33:54;;;;;;;15.23;9.38;;;;;;;;;;4974168;28;20026;-68
2022/10/11 01:36:39;;;;;;;13.07;10.50;;;;;;;;;;4973446;28;20033;-67
2022/10/11 01:39:04;;;;;;;11.98;10.13;;;;;;;;;;4955974;28;20057;-67
2022/10/11 01:41:31;;;;;;;10.57;9.15;;;;;;;;;;4973475;28;20059;-67
2022/10/11 01:43:58;;;;;;;15.48;11.48;;;;;;;;;;4973657;28;20030;-66
2022/10/11 01:46:24;;;;;;;13.00;10.88;;;;;;;;;;4973905;28;20019;-66
2022/10/11 01:48:50;;;;;;;11.35;10.10;;;;;;;;;;4973346;28;20569;-67
2022/10/11 01:51:18;;;;;;;14.98;12.07;;;;;;;;;;4961364;28;20033;-67
2022/10/11 01:53:57;;;;;;;13.88;11.25;;;;;;;;;;4972323;28;20066;-66
2022/10/11 01:56:26;;;;;;;13.85;10.65;;;;;;;;;;4973127;28;20039;-67
2022/10/11 01:59:10;;;;;;;13.68;11.00;;;;;;;;;;4972411;28;20519;-66
2022/10/11 02:01:48;;;;;;;13.82;11.63;;;;;;;;;;4970917;28;20042;-66
2022/10/11 02:04:24;;;;;;;14.10;10.82;;;;;;;;;;4973848;28;20034;-66
2022/10/11 02:06:56;;;;;;;15.93;10.73;;;;;;;;;;4973389;28;20081;-66
2022/10/11 02:09:24;;;;;;;13.88;9.98;;;;;;;;;;4972266;28;20073;-66
2022/10/11 02:11:51;;;;;;;12.23;10.45;;;;;;;;;;4973277;28;20085;-66
2022/10/11 02:14:17;;;;;;;12.32;10.88;;;;;;;;;;4973099;28;20440;-68
2022/10/11 02:16:45;;;;;;;13.45;10.20;;;;;;;;;;4972028;28;20097;-69
2022/10/11 02:19:12;;;;;;;12.15;10.50;;;;;;;;;;4966113;28;20098;-67
2022/10/11 02:21:39;;;;;;;14.10;10.52;;;;;;;;;;4971039;28;20105;-67
2022/10/11 02:24:08;;;;;;;13.10;10.70;;;;;;;;;;4963298;28;20041;-68
2022/10/11 02:26:34;;;;;;;12.63;11.07;;;;;;;;;;4971874;28;20042;-68
2022/10/11 02:29:01;;;;;;;14.68;11.45;;;;;;;;;;4973052;28;20020;-68
2022/10/11 02:31:28;;;;;;;14.90;11.68;;;;;;;;;;4973564;28;20081;-68
2022/10/11 02:33:56;;;;;;;16.05;11.45;;;;;;;;;;4972875;28;20027;-67
2022/10/11 02:36:36;;;;;;;15.30;11.90;;;;;;;;;;4953565;28;20508;-67
2022/10/11 02:39:05;;;;;;;14.07;11.30;;;;;;;;;;4971686;28;20195;-67
2022/10/11 02:41:42;;;;;;;15.27;11.25;;;;;;;;;;4973415;28;20901;-68
2022/10/11 02:44:12;;;;;;;14.07;11.70;;;;;;;;;;4972331;28;20030;-70
2022/10/11 02:46:38;;;;;;;13.55;12.15;;;;;;;;;;4973949;28;20026;-71
2022/10/11 02:49:05;;;;;;;15.82;12.38;;;;;;;;;;4971804;28;20092;-65
2022/10/11 02:51:31;;;;;;;15.90;12.05;;;;;;;;;;4972250;28;20142;-65
2022/10/11 02:53:56;;;;;;;13.57;11.95;;;;;;;;;;4970164;28;20080;-67
2022/10/11 02:56:21;;;;;;;14.93;12.65;;;;;;;;;;4972613;28;20062;-66
2022/10/11 02:58:47;;;;;;;16.45;11.95;;;;;;;;;;4971507;28;20037;-65
2022/10/11 03:01:13;;;;;;;16.15;12.18;;;;;;;;;;4972444;28;20027;-66
2022/10/11 03:03:38;;;;;;;15.02;12.27;;;;;;;;;;4970849;28;20038;-66
2022/10/11 03:06:04;;;;;;;15.43;13.35;;;;;;;;;;4957684;28;20037;-67
2022/10/11 03:08:29;;;;;;;15.32;13.05;;;;;;;;;;4972127;28;20041;-66
2022/10/11 03:10:54;;;;;;;16.20;12.30;;;;;;;;;;4971409;28;20029;-67
2022/10/11 03:13:20;;;;;;;15.52;12.40;;;;;;;;;;4972408;28;20092;-66
2022/10/11 03:15:48;;;;;;;13.55;11.98;;;;;;;;;;4973773;28;20040;-66
2022/10/11 03:18:13;;;;;;;15.60;13.65;;;;;;;;;;4972653;28;20022;-66
2022/10/11 03:20:39;;;;;;;16.25;12.77;;;;;;;;;;4972666;28;20504;-66
2022/10/11 03:23:04;;;;;;;16.35;13.13;;;;;;;;;;4973073;28;20488;-66
2022/10/11 03:25:29;;;;;;;15.27;13.15;;;;;;;;;;4972523;28;20470;-66
2022/10/11 03:27:54;;;;;;;17.35;12.82;;;;;;;;;;4970853;28;20476;-66
2022/10/11 03:30:20;;;;;;;17.15;12.13;;;;;;;;;;4973546;28;20066;-66
2022/10/11 03:32:45;;;;;;;16.02;12.40;;;;;;;;;;4973092;28;20060;-67
2022/10/11 03:35:10;;;;;;;17.58;13.73;;;;;;;;;;4972749;28;20485;-66
2022/10/11 03:37:35;;;;;;;13.55;12.00;;;;;;;;;;4971694;28;20030;-66
2022/10/11 03:40:02;;;;;;;16.92;13.52;;;;;;;;;;4971280;28;20110;-66
2022/10/11 03:42:28;;;;;;;15.98;12.95;;;;;;;;;;4971228;28;20062;-66
2022/10/11 03:44:53;;;;;;;17.40;12.40;;;;;;;;;;4971674;28;20112;-66
2022/10/11 03:47:18;;;;;;;14.77;11.85;;;;;;;;;;4971890;28;20121;-67
2022/10/11 03:49:44;;;;;;;15.57;10.75;;;;;;;;;;4970784;28;20034;-66
2022/10/11 03:52:09;;;;;;;15.45;11.50;;;;;;;;;;4971648;28;20924;-66
2022/10/11 03:54:34;;;;;;;16.23;11.20;;;;;;;;;;4971721;28;20027;-66
2022/10/11 03:56:59;;;;;;;18.08;11.20;;;;;;;;;;4971654;28;20897;-66
2022/10/11 03:59:25;;;;;;;14.93;11.02;;;;;;;;;;4972760;28;20583;-65
2022/10/11 04:01:53;;;;;;;17.75;12.25;;;;;;;;;;4973424;28;20098;-66
2022/10/11 04:04:18;;;;;;;16.48;12.38;;;;;;;;;;4976308;28;20603;-66
2022/10/11 04:06:43;;;;;;;13.95;10.95;;;;;;;;;;4975593;28;20034;-66
2022/10/11 04:09:12;;;;;;;13.52;9.77;;;;;;;;;;4974505;28;20138;-66
2022/10/11 04:11:37;;;;;;;18.52;11.35;;;;;;;;;;4975895;28;20030;-67
2022/10/11 04:14:02;;;;;;;14.63;11.40;;;;;;;;;;4975314;28;20054;-66
2022/10/11 04:16:28;;;;;;;15.20;11.73;;;;;;;;;;4976652;28;20744;-66
2022/10/11 04:18:53;;;;;;;16.48;10.15;;;;;;;;;;4974892;28;20042;-66
2022/10/11 04:21:18;;;;;;;14.73;10.27;;;;;;;;;;4958006;28;20508;-66
2022/10/11 04:23:44;;;;;;;11.25;8.43;;;;;;;;;;4960858;28;20046;-66
2022/10/11 04:26:09;;;;;;;16.10;8.90;;;;;;;;;;4973560;28;20030;-66
2022/10/11 04:28:34;;;;;;;12.27;8.75;;;;;;;;;;4970329;28;20113;-67
2022/10/11 04:31:00;;;;;;;12.40;9.18;;;;;;;;;;4976112;28;20037;-68
2022/10/11 04:33:25;;;;;;;8.95;8.05;;;;;;;;;;4975875;28;20737;-67
2022/10/11 04:35:54;;;;;;;10.60;8.75;;;;;;;;;;4960209;28;20041;-67
2022/10/11 04:38:20;;;;;;;12.80;8.52;;;;;;;;;;4976145;28;20030;-67
2022/10/11 04:40:45;;;;;;;10.18;7.78;;;;;;;;;;4975578;28;20022;-67
2022/10/11 04:43:10;;;;;;;13.32;10.57;;;;;;;;;;4977490;28;20756;-66
2022/10/11 04:45:35;;;;;;;18.92;12.35;;;;;;;;;;4976686;28;20034;-66
2022/10/11 04:48:01;;;;;;;13.90;10.05;;;;;;;;;;4975797;28;20085;-66
2022/10/11 04:50:26;;;;;;;13.15;10.45;;;;;;;;;;4973168;28;20097;-67
2022/10/11 04:52:51;;;;;;;15.75;11.13;;;;;;;;;;4970865;28;20038;-65
2022/10/11 04:55:16;;;;;;;9.48;8.15;;;;;;;;;;4971902;28;20818;-67
2022/10/11 04:57:42;;;;;;;18.40;13.35;;;;;;;;;;4971556;28;20464;-66
2022/10/11 05:00:07;;;;;;;16.83;12.98;;;;;;;;;;4972500;28;20637;-66
2022/10/11 05:02:33;;;;;;;18.65;13.05;;;;;;;;;;4975161;28;20037;-66
2022/10/11 05:04:58;;;;;;;16.83;15.20;;;;;;;;;;4972520;28;20031;-66
2022/10/11 05:07:23;;;;;;;11.98;8.25;;;;;;;;;;4974795;28;20033;-67
2022/10/11 05:09:49;;;;;;;12.52;7.72;;;;;;;;;;4974843;28;20521;-65
2022/10/11 05:12:14;;;;;;;8.55;6.32;;;;;;;;;;4968104;28;20066;-68
2022/10/11 05:14:39;;;;;;;7.82;6.60;;;;;;;;;;4969304;28;20166;-68
2022/10/11 05:17:04;;;;;;;7.88;5.80;;;;;;;;;;4970862;28;20037;-69
2022/10/11 05:19:29;;;;;;;11.73;6.95;;;;;;;;;;4968283;28;20513;-68
2022/10/11 05:21:56;;;;;;;12.98;6.72;;;;;;;;;;4957908;28;20766;-67
2022/10/11 05:24:21;;;;;;;9.43;7.22;;;;;;;;;;4972230;28;20109;-68
2022/10/11 05:26:46;;;;;;;8.75;7.00;;;;;;;;;;4972713;28;20040;-69
2022/10/11 05:29:12;;;;;;;8.63;7.18;;;;;;;;;;4972527;28;20498;-69
2022/10/11 05:31:37;;;;;;;11.93;7.43;;;;;;;;;;4955523;28;20040;-69
2022/10/11 05:34:02;;;;;;;10.80;7.97;;;;;;;;;;4972030;28;20029;-68
2022/10/11 05:36:27;;;;;;;11.07;8.18;;;;;;;;;;4972380;28;20500;-65
2022/10/11 05:38:53;;;;;;;13.05;8.52;;;;;;;;;;4974412;28;20050;-69
2022/10/11 05:41:18;;;;;;;10.98;8.15;;;;;;;;;;4972762;28;20046;-71
2022/10/11 05:43:44;;;;;;;9.70;8.02;;;;;;;;;;4972036;28;20046;-66
2022/10/11 05:46:10;;;;;;;12.02;8.50;;;;;;;;;;4965416;28;20030;-66
2022/10/11 05:48:35;;;;;;;16.05;11.02;;;;;;;;;;4973150;28;20034;-64
2022/10/11 05:51:02;;;;;;;14.68;9.63;;;;;;;;;;4973824;28;20574;-65
2022/10/11 05:53:27;;;;;;;11.73;9.50;;;;;;;;;;4972718;28;20026;-65
2022/10/11 05:55:52;;;;;;;12.55;9.07;;;;;;;;;;4973726;28;20089;-65
2022/10/11 05:58:18;;;;;;;10.93;9.82;;;;;;;;;;4971752;28;20042;-66
2022/10/11 06:00:43;;;;;;;12.13;9.13;;;;;;;;;;4957682;28;20054;-65
2022/10/11 06:03:10;;;;;;;10.20;8.63;;;;;;;;;;4971305;28;20031;-66
2022/10/11 06:05:35;;;;;;;11.68;9.43;;;;;;;;;;4972416;28;20138;-64
2022/10/11 06:08:01;;;;;;;11.98;9.20;;;;;;;;;;4970544;28;20394;-64
2022/10/11 06:10:26;;;;;;;10.27;8.23;;;;;;;;;;4955511;28;20481;-65
2022/10/11 06:12:51;;;;;;;11.15;8.70;;;;;;;;;;4973711;28;20062;-66
2022/10/11 06:15:17;;;;;;;16.15;10.20;;;;;;;;;;4972100;28;20030;-65
2022/10/11 06:17:42;;;;;;;11.00;8.18;;;;;;;;;;4954478;28;20086;-65
2022/10/11 06:20:07;;;;;;;9.05;8.15;;;;;;;;;;4972838;28;20037;-65
2022/10/11 06:22:33;;;;;;;9.70;7.95;;;;;;;;;;4971103;28;20045;-66
2022/10/11 06:24:58;;;;;;;11.25;8.00;;;;;;;;;;4971706;28;20039;-66
2022/10/11 06:27:23;;;;;;;12.45;8.07;;;;;;;;;;4966997;28;20031;-66
2022/10/11 06:29:49;;;;;;;10.18;7.43;;;;;;;;;;4971944;28;20030;-66
2022/10/11 06:32:14;;;;;;;8.93;7.13;;;;;;;;;;4955611;28;20033;-68
2022/10/11 06:34:39;;;;;;;10.65;7.70;;;;;;;;;;4971570;28;20034;-64
2022/10/11 06:37:05;;;;;;;14.20;8.63;;;;;;;;;;4974373;28;20061;-63
2022/10/11 06:39:30;;;;;;;12.32;9.02;;;;;;;;;;4971887;28;20060;-63
2022/10/11 06:41:55;;;;;;;10.52;8.25;;;;;;;;;;4972496;28;20033;-63
2022/10/11 06:44:21;;;;;;;14.63;10.40;;;;;;;;;;4972765;28;20985;-63
2022/10/11 06:46:46;;;;;;;17.55;11.93;;;;;;;;;;4957220;28;20038;-63
2022/10/11 06:49:11;;;;;;;13.57;11.50;;;;;;;;;;4953233;28;20105;-63
2022/10/11 06:51:36;;;;;;;11.50;9.88;;;;;;;;;;4973034;28;20517;-63
2022/10/11 06:54:02;;;;;;;12.55;11.23;;;;;;;;;;4972694;28;20133;-63
2022/10/11 06:56:28;;;;;;;18.85;11.93;;;;;;;;;;4971594;28;20141;-63
2022/10/11 06:58:54;;;;;;;16.90;12.38;;;;;;;;;;4971982;28;20055;-63
2022/10/11 07:01:22;;;;;;;15.02;11.20;;;;;;;;;;4972674;28;20451;-64
2022/10/11 07:03:47;;;;;;;14.85;12.25;;;;;;;;;;4972464;28;20022;-63
2022/10/11 07:06:14;;;;;;;15.07;11.70;;;;;;;;;;4971591;28;20042;-64
2022/10/11 07:08:39;;;;;;;14.95;12.13;;;;;;;;;;4971893;28;20155;-63
2022/10/11 07:11:06;;;;;;;13.90;11.70;;;;;;;;;;4971087;28;20510;-64
2022/10/11 07:13:31;;;;;;;16.88;12.85;;;;;;;;;;4970609;28;20058;-63
2022/10/11 07:15:59;;;;;;;15.32;12.57;;;;;;;;;;4960587;28;20498;-65
2022/10/11 07:18:24;;;;;;;14.02;11.10;;;;;;;;;;4973031;28;20022;-66
2022/10/11 07:20:49;;;;;;;14.13;11.15;;;;;;;;;;4970293;28;20022;-64
2022/10/11 07:23:15;;;;;;;16.02;12.10;;;;;;;;;;4964047;28;20030;-71
2022/10/11 07:25:40;;;;;;;16.08;12.65;;;;;;;;;;4972510;28;21063;-69
2022/10/11 07:28:05;;;;;;;17.63;13.18;;;;;;;;;;4960778;28;20026;-67
2022/10/11 07:30:30;;;;;;;16.95;12.48;;;;;;;;;;4971096;28;20623;-70
2022/10/11 07:32:56;;;;;;;14.55;11.73;;;;;;;;;;4972191;28;20038;-68
2022/10/11 07:35:21;;;;;;;17.52;12.85;;;;;;;;;;4941836;28;20031;-68
2022/10/11 07:37:46;;;;;;;15.30;12.73;;;;;;;;;;4976194;28;20508;-68
2022/10/11 07:40:11;;;;;;;22.05;13.35;;;;;;;;;;4976253;28;20034;-68
2022/10/11 07:42:37;;;;;;;18.40;12.55;;;;;;;;;;4975988;28;20033;-68
2022/10/11 07:45:02;;;;;;;13.35;11.95;;;;;;;;;;4975016;28;20541;-67
2022/10/11 07:47:28;;;;;;;17.13;13.27;;;;;;;;;;4974764;28;20058;-67
2022/10/11 07:49:53;;;;;;;16.20;13.52;;;;;;;;;;4960385;28;20030;-70
2022/10/11 07:52:18;;;;;;;15.00;13.35;;;;;;;;;;4975344;28;20035;-69
2022/10/11 07:54:43;;;;;;;15.65;11.85;;;;;;;;;;4972824;28;20030;-67
2022/10/11 07:57:09;;;;;;;13.65;11.55;;;;;;;;;;4975517;28;20112;-68
2022/10/11 07:59:34;;;;;;;17.13;12.15;;;;;;;;;;4974878;28;20470;-70
2022/10/11 08:01:59;;;;;;;13.73;11.20;;;;;;;;;;4971448;28;20038;-68
2022/10/11 08:04:25;;;;;;;14.75;11.73;;;;;;;;;;4955847;28;20026;-68
2022/10/11 08:06:50;;;;;;;11.60;10.40;;;;;;;;;;4970814;28;21137;-68
2022/10/11 08:09:15;;;;;;;14.10;9.25;;;;;;;;;;4972145;28;20027;-68
2022/10/11 08:11:40;;;;;;;13.43;8.63;;;;;;;;;;4970343;28;20034;-70
2022/10/11 08:14:07;;;;;;;14.93;9.73;;;;;;;;;;4971593;28;20146;-70
2022/10/11 08:16:37;;;;;;;16.63;9.07;;;;;;;;;;4971216;28;20019;-69
2022/10/11 08:19:03;;;;;;;10.55;7.65;;;;;;;;;;4970406;28;20022;-67
2022/10/11 08:21:28;;;;;;;15.13;8.13;;;;;;;;;;4973035;28;20034;-68
2022/10/11 08:23:53;;;;;;;16.98;9.70;;;;;;;;;;4971953;28;20074;-67
2022/10/11 08:26:19;;;;;;;15.27;10.50;;;;;;;;;;4973474;28;20319;-68
2022/10/11 08:28:44;;;;;;;15.27;9.55;;;;;;;;;;4975379;28;20523;-73
2022/10/11 08:31:13;;;;;;;13.57;10.35;;;;;;;;;;4976113;28;20074;-67
2022/10/11 08:33:38;;;;;;;18.48;10.20;;;;;;;;;;4951060;28;20823;-67
2022/10/11 08:36:04;;;;;;;15.23;10.23;;;;;;;;;;4954671;28;20058;-67
2022/10/11 08:38:29;;;;;;;16.75;9.77;;;;;;;;;;4956997;28;20019;-68
2022/10/11 08:40:56;;;;;;;14.40;9.35;;;;;;;;;;4972122;28;20022;-67
2022/10/11 08:43:40;;;;;;;16.08;9.07;;;;;;;;;;4974866;28;20126;-68
2022/10/11 08:46:06;;;;;;;13.95;9.93;;;;;;;;;;4975702;28;20037;-68
2022/10/11 08:48:43;;;;;;;11.90;9.77;;;;;;;;;;4966691;28;20413;-68
2022/10/11 08:51:22;;;;;;;10.43;9.15;;;;;;;;;;4971428;28;20607;-67
2022/10/11 08:53:54;;;;;;;19.58;10.85;;;;;;;;;;4971237;28;20022;-68
2022/10/11 08:56:20;;;;;;;13.50;9.20;;;;;;;;;;4974224;28;20034;-67
2022/10/11 08:58:50;;;;;;;13.32;8.65;;;;;;;;;;4973161;28;20026;-67
2022/10/11 09:01:19;;;;;;;14.00;9.63;;;;;;;;;;4971997;28;20030;-67
2022/10/11 09:03:45;;;;;;;12.18;9.73;;;;;;;;;;4971959;28;20894;-66
2022/10/11 09:06:29;;;;;;;11.57;8.95;;;;;;;;;;4973806;28;20031;-66
2022/10/11 09:09:13;;;;;;;16.67;8.80;;;;;;;;;;4974399;28;20450;-66
2022/10/11 09:11:57;;;;;;;12.32;8.77;;;;;;;;;;4975747;28;20026;-66
2022/10/11 09:14:29;;;;;;;11.85;8.52;;;;;;;;;;4973825;28;20517;-66
2022/10/11 09:16:57;;;;;;;11.93;8.65;;;;;;;;;;4971868;28;20027;-68
2022/10/11 09:19:41;;;;;;;11.25;8.23;;;;;;;;;;4970304;28;20026;-67
2022/10/11 09:22:13;;;;;;;14.60;7.03;;;;;;;;;;4971393;28;20569;-67
2022/10/11 09:24:46;;;;;;;11.25;8.10;;;;;;;;;;4968844;28;20149;-69
2022/10/11 09:27:17;;;;;;;11.27;5.47;;;;;;;;;;4969864;28;20041;-69
2022/10/11 09:29:49;;;;;;;8.63;4.78;;;;;;;;;;4970041;28;20038;-68
2022/10/11 09:32:16;;;;;;;13.07;4.93;;;;;;;;;;4972905;28;20123;-68
2022/10/11 09:34:42;;;;;;;8.27;4.30;;;;;;;;;;4970988;28;20039;-69
2022/10/11 09:37:13;;;;;;;9.68;5.95;;;;;;;;;;4970234;28;20582;-68
2022/10/11 09:39:44;;;;;;;11.88;4.63;;;;;;;;;;4971960;28;20066;-68
2022/10/11 09:42:10;;;;;;;11.02;4.65;;;;;;;;;;4968762;28;20069;-68
2022/10/11 09:44:40;;;;;;;8.20;4.50;;;;;;;;;;4970723;28;20030;-68
2022/10/11 09:47:09;;;;;;;10.48;4.75;;;;;;;;;;4969508;28;20199;-69
2022/10/11 09:49:37;;;;;;;7.82;4.85;;;;;;;;;;4973240;28;20022;-65
2022/10/11 09:52:02;;;;;;;10.32;5.20;;;;;;;;;;4972528;28;20058;-62
2022/10/11 09:54:38;;;;;;;14.02;5.38;;;;;;;;;;4972660;28;20149;-65
2022/10/11 09:57:04;;;;;;;8.68;4.55;;;;;;;;;;4971827;28;20049;-72
2022/10/11 09:59:34;;;;;;;8.25;4.95;;;;;;;;;;4969626;28;20541;-75
2022/10/11 10:02:15;;;;;;;6.93;5.22;;;;;;;;;;4969921;28;20042;-69
2022/10/11 10:04:59;;;;;;;7.20;4.35;;;;;;;;;;4971086;28;20035;-69
2022/10/11 10:07:25;;;;;;;8.73;4.68;;;;;;;;;;4971884;28;20069;-69
2022/10/11 10:09:51;;;;;;;9.93;4.50;;;;;;;;;;4967828;28;20427;-70
2022/10/11 10:12:21;;;;;;;12.00;5.10;;;;;;;;;;4968922;28;20058;-69
2022/10/11 10:15:05;;;;;;;12.82;4.53;;;;;;;;;;4967260;28;20077;-69
2022/10/11 10:17:30;;;;;;;11.82;4.47;;;;;;;;;;4966774;28;20026;-69
2022/10/11 10:19:59;;;;;;;7.07;5.07;;;;;;;;;;4972429;28;20441;-70
2022/10/11 10:22:27;;;;;;;8.75;5.10;;;;;;;;;;4958500;28;20037;-69
2022/10/11 10:24:52;;;;;;;6.57;4.35;;;;;;;;;;4971265;28;20069;-69
2022/10/11 10:27:22;;;;;;;9.20;3.95;;;;;;;;;;4970910;28;20545;-69
2022/10/11 10:30:00;;;;;;;11.02;4.53;;;;;;;;;;4971698;28;20627;-69
2022/10/11 10:32:39;;;;;;;8.77;3.88;;;;;;;;;;4972033;28;20039;-68
2022/10/11 10:35:07;;;;;;;10.43;5.32;;;;;;;;;;4971579;28;20133;-72
2022/10/11 10:37:44;;;;;;;9.10;4.78;;;;;;;;;;4972174;28;20041;-68
2022/10/11 10:40:19;;;;;;;12.20;4.65;;;;;;;;;;4972483;28;20044;-67
2022/10/11 10:42:44;;;;;;;10.55;4.00;;;;;;;;;;4973409;28;20030;-67
2022/10/11 10:45:13;;;;;;;8.13;5.25;;;;;;;;;;4971761;28;20053;-67
2022/10/11 10:47:41;;;;;;;9.52;4.22;;;;;;;;;;4972103;28;20874;-67
2022/10/11 10:50:11;;;;;;;11.88;4.25;;;;;;;;;;4970897;28;20026;-67
2022/10/11 10:52:55;;;;;;;8.75;5.15;;;;;;;;;;4971878;28;20146;-66
2022/10/11 10:55:24;;;;;;;10.88;4.40;;;;;;;;;;4971495;28;20031;-67
2022/10/11 10:57:49;;;;;;;8.63;3.72;;;;;;;;;;4971143;28;20534;-67
2022/10/11 11:00:16;;;;;;;10.88;4.10;;;;;;;;;;4973064;28;20023;-67
2022/10/11 11:03:00;;;;;;;12.20;4.22;;;;;;;;;;4972987;28;20034;-67
2022/10/11 11:05:28;;;;;;;10.98;4.90;;;;;;;;;;4967962;28;20121;-65
2022/10/11 11:07:58;;;;;;;6.60;4.10;;;;;;;;;;4968009;28;20612;-63
2022/10/11 11:10:35;;;;;;;10.35;4.93;;;;;;;;;;4971669;28;20157;-68
2022/10/11 11:13:19;;;;;;;26.10;13.38;;;;;;;;;;4969053;28;20055;-66
2022/10/11 11:15:49;;;;;;;11.13;4.40;;;;;;;;;;4966955;28;21356;-66
2022/10/11 11:18:19;;;;;;;8.68;4.43;;;;;;;;;;4971595;28;20103;-67
2022/10/11 11:20:44;;;;;;;9.32;4.43;;;;;;;;;;4969646;28;20030;-66
2022/10/11 11:23:27;;;;;;;9.65;4.10;;;;;;;;;;4970824;28;20034;-66
2022/10/11 11:25:52;;;;;;;14.95;4.75;;;;;;;;;;4970817;28;20027;-65
2022/10/11 11:28:28;;;;;;;11.30;4.50;;;;;;;;;;4970652;28;20037;-65
2022/10/11 11:30:53;;;;;;;13.52;4.00;;;;;;;;;;4971797;28;20037;-66
2022/10/11 11:33:33;;;;;;;10.15;4.70;;;;;;;;;;4972156;28;20022;-68
2022/10/11 11:36:01;;;;;;;13.90;4.90;;;;;;;;;;4971362;28;20507;-65
2022/10/11 11:38:41;;;;;;;12.52;3.80;;;;;;;;;;4971250;28;20031;-69
2022/10/11 11:41:11;;;;;;;8.43;4.50;;;;;;;;;;4971146;28;20038;-67
2022/10/11 11:43:51;;;;;;;9.45;4.15;;;;;;;;;;4972535;28;20709;-67
2022/10/11 11:46:19;;;;;;;18.15;4.72;;;;;;;;;;4972312;28;20038;-67
2022/10/11 11:48:45;;;;;;;10.57;3.40;;;;;;;;;;4971249;28;20145;-67
2022/10/11 11:51:16;;;;;;;16.25;4.63;;;;;;;;;;4971727;28;20080;-68
2022/10/11 11:53:52;;;;;;;11.98;4.35;;;;;;;;;;4968607;28;20042;-67
2022/10/11 11:56:17;;;;;;;14.57;3.85;;;;;;;;;;4967003;28;20497;-68
2022/10/11 11:58:52;;;;;;;8.68;3.63;;;;;;;;;;4970167;28;20141;-67
2022/10/11 12:01:23;;;;;;;7.28;3.58;;;;;;;;;;4968336;28;20034;-67
2022/10/11 12:03:54;;;;;;;12.70;4.40;;;;;;;;;;4970054;28;20425;-66
2022/10/11 12:06:25;;;;;;;12.48;4.25;;;;;;;;;;4971661;28;20034;-67
2022/10/11 12:09:00;;;;;;;13.40;4.47;;;;;;;;;;4972739;28;20437;-69
2022/10/11 12:11:37;;;;;;;9.65;3.80;;;;;;;;;;4971889;28;20026;-70
2022/10/11 12:14:14;;;;;;;12.45;3.90;;;;;;;;;;4972012;28;20498;-69
2022/10/11 12:16:59;;;;;;;7.47;3.60;;;;;;;;;;4972262;28;20488;-70
2022/10/11 12:19:26;;;;;;;7.78;4.03;;;;;;;;;;4971227;28;20760;-68
2022/10/11 12:22:12;;;;;;;6.85;3.35;;;;;;;;;;4970781;28;20054;-69
2022/10/11 12:25:10;;;;;;;9.25;3.25;;;;;;;;;;4975756;28;20050;-68
2022/10/11 12:27:36;;;;;;;3.53;2.80;;;;;;;;;;4927288;28;20081;-69
2022/10/11 12:30:01;;;;;;;9.95;3.65;;;;;;;;;;4972248;28;20398;-69
2022/10/11 12:32:26;;;;;;;12.57;4.10;;;;;;;;;;4959663;28;20121;-71
2022/10/11 12:35:12;;;;;;;7.30;2.85;;;;;;;;;;4975092;28;20101;-70
2022/10/11 12:37:37;;;;;;;7.70;3.50;;;;;;;;;;4975058;28;20126;-68
2022/10/11 12:40:22;;;;;;;9.98;3.28;;;;;;;;;;4974483;28;20023;-68
2022/10/11 12:43:06;;;;;;;6.95;3.47;;;;;;;;;;4974175;28;20414;-61
2022/10/11 12:45:33;;;;;;;6.60;2.95;;;;;;;;;;4972393;28;20082;-66
2022/10/11 12:48:04;;;;;;;6.65;2.78;;;;;;;;;;4970396;28;20038;-61
2022/10/11 12:50:38;;;;;;;7.20;3.10;;;;;;;;;;4971951;28;20023;-60
2022/10/11 12:53:03;;;;;;;5.65;2.97;;;;;;;;;;4973413;28;20023;-65
2022/10/11 12:55:34;;;;;;;5.95;2.70;;;;;;;;;;4963301;28;20053;-65
2022/10/11 12:58:14;;;;;;;5.88;3.15;;;;;;;;;;4970782;28;20977;-66
2022/10/11 13:00:39;;;;;;;7.32;3.38;;;;;;;;;;4973240;28;20041;-65
2022/10/11 13:03:24;;;;;;;4.18;3.40;;;;;;;;;;4974184;28;20030;-65
2022/10/11 13:05:50;;;;;;;10.07;3.15;;;;;;;;;;4973604;28;20781;-65
2022/10/11 13:08:21;;;;;;;4.53;2.90;;;;;;;;;;4973777;28;20026;-65
2022/10/11 13:10:47;;;;;;;5.60;3.30;;;;;;;;;;4971854;28;20117;-65
2022/10/11 13:13:17;;;;;;;5.97;3.55;;;;;;;;;;4971962;28;20153;-65
2022/10/11 13:15:42;;;;;;;3.90;2.67;;;;;;;;;;4958046;28;20145;-66
2022/10/11 13:18:12;;;;;;;5.40;2.85;;;;;;;;;;4969945;28;20310;-66
2022/10/11 13:20:38;;;;;;;8.55;3.92;;;;;;;;;;4970301;28;20105;-65
2022/10/11 13:23:03;;;;;;;5.57;3.08;;;;;;;;;;4974734;28;20038;-65
2022/10/11 13:25:35;;;;;;;4.22;2.97;;;;;;;;;;4974146;28;20542;-65
2022/10/11 13:28:00;;;;;;;6.15;2.95;;;;;;;;;;4973052;28;20027;-64
2022/10/11 13:30:28;;;;;;;6.68;3.40;;;;;;;;;;4973248;28;20374;-65
2022/10/11 13:32:53;;;;;;;8.52;3.13;;;;;;;;;;4972784;28;20045;-65
2022/10/11 13:35:37;;;;;;;3.22;2.85;;;;;;;;;;4973654;28;20030;-65
2022/10/11 13:38:03;;;;;;;6.38;2.78;;;;;;;;;;4972884;28;20145;-66
2022/10/11 13:40:29;;;;;;;5.75;3.05;;;;;;;;;;4955801;28;20113;-66
2022/10/11 13:42:55;;;;;;;4.38;3.30;;;;;;;;;;4974369;28;20090;-64
2022/10/11 13:45:21;;;;;;;6.22;3.22;;;;;;;;;;4957391;28;20732;-65
2022/10/11 13:47:48;;;;;;;9.00;4.03;;;;;;;;;;4972796;28;20034;-64
2022/10/11 13:50:21;;;;;;;5.78;3.03;;;;;;;;;;4972019;28;20061;-65
2022/10/11 13:52:54;;;;;;;4.40;2.88;;;;;;;;;;4974023;28;20466;-63
2022/10/11 13:55:22;;;;;;;4.32;3.15;;;;;;;;;;4971485;28;20038;-66
2022/10/11 13:57:49;;;;;;;8.25;3.55;;;;;;;;;;4973420;28;20038;-65
2022/10/11 14:00:16;;;;;;;4.85;3.35;;;;;;;;;;4973703;28;20033;-64
2022/10/11 14:02:49;;;;;;;5.53;2.85;;;;;;;;;;4973351;28;20065;-65
2022/10/11 14:05:28;;;;;;;4.97;2.83;;;;;;;;;;4971746;28;20044;-63
2022/10/11 14:07:54;;;;;;;6.15;3.35;;;;;;;;;;4972537;28;20068;-64
2022/10/11 14:10:21;;;;;;;3.25;2.95;;;;;;;;;;4973095;28;20058;-63
2022/10/11 14:12:56;;;;;;;7.72;2.83;;;;;;;;;;4969710;28;20065;-65
2022/10/11 14:15:24;;;;;;;4.70;3.35;;;;;;;;;;4969858;28;20034;-64
2022/10/11 14:17:50;;;;;;;7.80;3.45;;;;;;;;;;4971879;28;20135;-69
2022/10/11 14:20:18;;;;;;;7.00;3.22;;;;;;;;;;4972550;28;20039;-72
2022/10/11 14:22:44;;;;;;;4.82;2.90;;;;;;;;;;4971070;28;20036;-73
2022/10/11 14:25:09;;;;;;;6.18;3.75;;;;;;;;;;4970876;28;20038;-72
2022/10/11 14:27:35;;;;;;;5.50;3.03;;;;;;;;;;4972316;28;20042;-72
2022/10/11 14:30:00;;;;;;;3.72;3.10;;;;;;;;;;4971771;28;20043;-72
2022/10/11 14:32:29;;;;;;;7.47;3.55;;;;;;;;;;4972762;28;20050;-69
2022/10/11 14:34:55;;;;;;;5.53;3.13;;;;;;;;;;4973396;28;20030;-70